createdAt,value
2022-09-09T00:01:03.117Z,17.8
2022-09-09T00:06:55.663Z,17.8
2022-09-09T00:12:47.100Z,17.8
2022-09-09T00:18:38.341Z,17.6
2022-09-09T00:24:30.259Z,17.7
2022-09-09T00:30:21.656Z,17.5
2022-09-09T00:36:14.045Z,17.6
2022-09-09T00:42:05.066Z,17.5
2022-09-09T00:47:56.396Z,17.5
2022-09-09T00:53:47.480Z,17.6
2022-09-09T00:59:39.235Z,17.4
2022-09-09T01:05:30.146Z,17.5
2022-09-09T01:11:21.050Z,17.4
2022-09-09T01:17:11.668Z,17.3
2022-09-09T01:23:03.572Z,17.3
2022-09-09T01:28:55.264Z,17.5
2022-09-09T01:34:47.349Z,17.5
2022-09-09T01:40:39.759Z,17.5
2022-09-09T01:46:31.932Z,17.4
2022-09-09T01:52:24.096Z,17.4
2022-09-09T01:58:16.599Z,17.6
2022-09-09T02:04:08.510Z,17.5
2022-09-09T02:10:01.365Z,17.5
2022-09-09T02:15:51.692Z,17.4
2022-09-09T02:21:43.631Z,17.5
2022-09-09T02:27:35.708Z,17.5
2022-09-09T02:33:27.371Z,17.4
2022-09-09T02:39:17.461Z,17.5
2022-09-09T02:45:08.848Z,17.5
2022-09-09T02:50:59.989Z,17.3
2022-09-09T02:56:52.059Z,17.4
2022-09-09T03:02:43.780Z,17.5
2022-09-09T03:08:36.047Z,17.4
2022-09-09T03:14:33.978Z,17.5
2022-09-09T03:20:25.446Z,17.4
2022-09-09T03:26:16.421Z,17.4
2022-09-09T03:32:08.129Z,17.5
2022-09-09T03:37:59.898Z,17.4
2022-09-09T03:43:51.081Z,17.5
2022-09-09T03:49:44.238Z,17.3
2022-09-09T03:55:35.577Z,17.3
2022-09-09T04:01:26.618Z,17.2
2022-09-09T04:07:19.111Z,17.3
2022-09-09T04:13:10.760Z,17.4
2022-09-09T04:19:01.783Z,17.4
2022-09-09T06:51:19.971Z,18
2022-09-09T07:20:53.946Z,18.6
2022-09-09T07:26:47.102Z,18.7
2022-09-09T09:00:52.756Z,20.1
2022-09-09T09:06:49.274Z,20.2
2022-09-09T09:18:51.069Z,20.4
2022-09-09T09:24:58.594Z,20.4
2022-09-09T09:30:53.359Z,20.6
2022-09-09T09:36:44.624Z,20.6
2022-09-09T09:48:27.260Z,20.4
2022-09-09T10:06:29.597Z,20.6
2022-09-09T10:18:32.090Z,20.6
2022-09-09T10:24:23.107Z,20.7
2022-09-09T10:30:25.503Z,20.8
2022-09-09T10:36:40.243Z,20.9
2022-09-09T10:42:42.760Z,21.2
2022-09-09T10:48:44.137Z,21.2
2022-09-09T10:54:44.900Z,21.5
2022-09-09T11:00:36.818Z,21.3
2022-09-09T11:06:47.678Z,21.3
2022-09-09T11:12:47.874Z,21.4
2022-09-09T11:19:00.617Z,21.7
2022-09-09T12:35:48.060Z,22
2022-09-09T13:34:50.727Z,21.7
2022-09-09T13:46:50.009Z,22.4
2022-09-09T13:52:49.659Z,22
2022-09-09T13:58:43.795Z,21.8
2022-09-09T14:04:40.783Z,21.6
2022-09-09T14:16:38.472Z,21.9
2022-09-09T14:22:30.410Z,21.8
2022-09-09T14:35:24.848Z,21.5
2022-09-09T15:30:03.884Z,20.9
2022-09-09T15:36:00.913Z,21
2022-09-09T16:18:44.314Z,20.5
2022-09-09T17:15:31.196Z,19
2022-09-09T17:21:54.918Z,18.8
2022-09-09T17:52:17.279Z,18.5
2022-09-09T19:25:36.278Z,17.2
2022-09-09T19:38:42.198Z,17.1
2022-09-09T19:57:23.670Z,17
2022-09-09T20:09:42.924Z,16.9
2022-09-09T20:40:01.752Z,17
2022-09-09T20:45:58.845Z,16.9
2022-09-09T20:57:48.281Z,17.1
2022-09-09T21:03:52.025Z,17.2
2022-09-09T21:16:03.886Z,17.2
2022-09-09T21:22:05.154Z,17.1
2022-09-09T21:28:02.321Z,17
2022-09-09T21:47:21.018Z,16.9
2022-09-09T21:59:41.717Z,17
2022-09-09T22:11:49.893Z,16.8
2022-09-09T22:17:59.818Z,16.6
2022-09-09T22:23:51.708Z,16.8
2022-09-09T22:29:47.693Z,16.9
2022-09-09T22:35:48.601Z,16.9
2022-09-09T22:41:40.699Z,16.8
2022-09-09T22:47:34.584Z,16.8
2022-09-09T22:53:27.793Z,16.8
2022-09-09T22:59:18.611Z,16.6
2022-09-09T23:05:10.322Z,16.6
2022-09-09T23:11:01.381Z,16.5
2022-09-09T23:16:52.101Z,16.5
2022-09-09T23:22:45.396Z,16.4
2022-09-09T23:28:37.092Z,16.4
2022-09-09T23:34:26.649Z,16.4
2022-09-09T23:40:19.430Z,16.1
2022-09-09T23:46:17.006Z,16.3
2022-09-09T23:52:08.841Z,16.2
2022-09-09T23:57:59.798Z,16.3
